This is the latest recevied weather packets stored in our database for station/object OK1TBM-13. If no packets are shown the sender has not sent any weather packets the latest 10 day(s).
| Time | Temp. | Humidity | Pressure | Rain* | Wind** | Luminosity | Snow |
|---|---|---|---|---|---|---|---|
| 1788616202 | 22.78° C | 50% | 1016.9 hPa | 0 mm | - | 514 W/m² | - |
| 1788615902 | 22.22° C | 49% | 1016.9 hPa | 0 mm | - | 510 W/m² | - |
| 1788615601 | 22.22° C | 50% | 1016.9 hPa | 0 mm | - | 540 W/m² | - |
| 1788615301 | 22.22° C | 50% | 1016.9 hPa | 0 mm | - | 542 W/m² | - |
| 1788615001 | 21.67° C | 52% | 1016.9 hPa | 0 mm | - | 588 W/m² | - |
| 1788614701 | 21.11° C | 54% | 1016.9 hPa | 0 mm | - | 558 W/m² | - |
| 1788614402 | 20.56° C | 56% | 1016.9 hPa | 0 mm | - | 137 W/m² | - |
| 1788613801 | 20.56° C | 56% | 1017.3 hPa | 0 mm | - | 619 W/m² | - |
| 1788613501 | 20° C | 58% | 1017.3 hPa | 0 mm | - | 258 W/m² | - |
| 1788613200 | 19.44° C | 56% | 1017.3 hPa | 0 mm | - | 109 W/m² | - |
| 1788612900 | 20° C | 56% | 1017.3 hPa | 0 mm | - | 134 W/m² | - |
| 1788612600 | 20.56° C | 56% | 1017.3 hPa | 0 mm | - | 146 W/m² | - |
| 1788612300 | 20° C | 56% | 1017.3 hPa | 0 mm | - | 120 W/m² | - |
| 1788612001 | 20° C | 56% | 1017.3 hPa | 0 mm | - | 131 W/m² | - |
| 1788611702 | 20.56° C | 54% | 1017.3 hPa | 0 mm | - | 165 W/m² | - |
| 1788611401 | 20.56° C | 55% | 1017.3 hPa | 0 mm | - | 164 W/m² | - |
| 1788611101 | 20.56° C | 55% | 1017.3 hPa | 0 mm | - | 128 W/m² | - |
| 1788610823 | 21.11° C | 53% | 1017.3 hPa | 0 mm | - | 158 W/m² | - |
| 1788610501 | 21.67° C | 53% | 1017.3 hPa | 0 mm | - | 754 W/m² | - |
| 1788610201 | 22.22° C | 54% | 1017.3 hPa | 0 mm | - | 716 W/m² | - |
| 1788609901 | 21.67° C | 53% | 1017.3 hPa | 0 mm | - | 596 W/m² | - |
| 1788609601 | 20.56° C | 54% | 1017.3 hPa | 0 mm | - | 235 W/m² | - |
| 1788609002 | 21.67° C | 53% | 1017.3 hPa | 0 mm | - | 800 W/m² | - |
| 1788608701 | 21.11° C | 54% | 1017.3 hPa | 0 mm | - | 340 W/m² | - |
| 1788608408 | 21.11° C | 55% | 1017.3 hPa | 0 mm | - | 722 W/m² | - |
* Rain latest hour (hover to see other rain measurements)
** Current wind speed in m/s (hover to see current wind gust speed)